sensor_id;sensor_type;location;lat;lon;timestamp;P1;durP1;ratioP1;P2;durP2;ratioP2
48809;SDS011;40070;47.322;18.784;2023-07-31T00:09:32;4.46;;;2.82;;
48809;SDS011;40070;47.322;18.784;2023-07-31T00:10:51;4.09;;;2.28;;
48809;SDS011;40070;47.322;18.784;2023-07-31T00:12:52;4.71;;;2.03;;
48809;SDS011;40070;47.322;18.784;2023-07-31T00:14:53;4.10;;;2.22;;
48809;SDS011;40070;47.322;18.784;2023-07-31T00:16:54;4.03;;;2.50;;
48809;SDS011;40070;47.322;18.784;2023-07-31T00:18:55;3.72;;;2.04;;
48809;SDS011;40070;47.322;18.784;2023-07-31T00:20:56;4.25;;;2.21;;
48809;SDS011;40070;47.322;18.784;2023-07-31T00:22:57;3.97;;;2.29;;
48809;SDS011;40070;47.322;18.784;2023-07-31T00:24:58;4.84;;;2.20;;
48809;SDS011;40070;47.322;18.784;2023-07-31T00:27:09;4.50;;;2.49;;
48809;SDS011;40070;47.322;18.784;2023-07-31T00:29:10;4.79;;;2.51;;
48809;SDS011;40070;47.322;18.784;2023-07-31T00:31:11;4.25;;;2.24;;
48809;SDS011;40070;47.322;18.784;2023-07-31T00:33:12;5.45;;;2.60;;
48809;SDS011;40070;47.322;18.784;2023-07-31T00:35:13;4.14;;;2.25;;
48809;SDS011;40070;47.322;18.784;2023-07-31T00:37:14;3.38;;;2.16;;
48809;SDS011;40070;47.322;18.784;2023-07-31T00:39:15;3.80;;;2.13;;
48809;SDS011;40070;47.322;18.784;2023-07-31T00:41:16;3.86;;;2.31;;
48809;SDS011;40070;47.322;18.784;2023-07-31T00:43:17;4.86;;;2.02;;
48809;SDS011;40070;47.322;18.784;2023-07-31T00:45:18;5.19;;;2.30;;
48809;SDS011;40070;47.322;18.784;2023-07-31T00:47:19;4.35;;;2.20;;
48809;SDS011;40070;47.322;18.784;2023-07-31T00:49:20;4.43;;;2.56;;
48809;SDS011;40070;47.322;18.784;2023-07-31T00:51:22;3.76;;;2.27;;
48809;SDS011;40070;47.322;18.784;2023-07-31T00:53:24;3.82;;;2.09;;
48809;SDS011;40070;47.322;18.784;2023-07-31T00:55:24;5.35;;;2.46;;
48809;SDS011;40070;47.322;18.784;2023-07-31T00:57:25;4.65;;;2.28;;
48809;SDS011;40070;47.322;18.784;2023-07-31T00:59:26;3.81;;;2.38;;
48809;SDS011;40070;47.322;18.784;2023-07-31T01:01:27;4.36;;;2.38;;
48809;SDS011;40070;47.322;18.784;2023-07-31T01:03:29;4.67;;;2.56;;
48809;SDS011;40070;47.322;18.784;2023-07-31T01:07:56;4.27;;;2.38;;
48809;SDS011;40070;47.322;18.784;2023-07-31T01:10:04;4.09;;;2.65;;
48809;SDS011;40070;47.322;18.784;2023-07-31T01:12:14;4.10;;;2.56;;
48809;SDS011;40070;47.322;18.784;2023-07-31T01:14:14;4.62;;;2.66;;
48809;SDS011;40070;47.322;18.784;2023-07-31T01:16:15;5.36;;;2.95;;
48809;SDS011;40070;47.322;18.784;2023-07-31T01:18:16;4.14;;;2.60;;
48809;SDS011;40070;47.322;18.784;2023-07-31T01:20:19;6.37;;;2.61;;
48809;SDS011;40070;47.322;18.784;2023-07-31T01:25:05;4.75;;;2.15;;
48809;SDS011;40070;47.322;18.784;2023-07-31T01:27:04;5.07;;;2.70;;
48809;SDS011;40070;47.322;18.784;2023-07-31T01:29:33;4.39;;;2.42;;
48809;SDS011;40070;47.322;18.784;2023-07-31T01:31:33;4.39;;;2.44;;
48809;SDS011;40070;47.322;18.784;2023-07-31T01:33:34;4.06;;;2.16;;
48809;SDS011;40070;47.322;18.784;2023-07-31T01:35:36;4.26;;;2.26;;
48809;SDS011;40070;47.322;18.784;2023-07-31T01:37:37;3.99;;;2.07;;
48809;SDS011;40070;47.322;18.784;2023-07-31T01:39:38;4.02;;;2.17;;
48809;SDS011;40070;47.322;18.784;2023-07-31T01:41:39;6.13;;;2.46;;
48809;SDS011;40070;47.322;18.784;2023-07-31T01:43:40;5.46;;;2.55;;
48809;SDS011;40070;47.322;18.784;2023-07-31T01:45:41;3.52;;;1.99;;
48809;SDS011;40070;47.322;18.784;2023-07-31T01:47:42;3.71;;;2.18;;
48809;SDS011;40070;47.322;18.784;2023-07-31T01:49:43;4.58;;;2.19;;
48809;SDS011;40070;47.322;18.784;2023-07-31T01:51:44;3.52;;;1.91;;
48809;SDS011;40070;47.322;18.784;2023-07-31T01:53:45;3.85;;;2.00;;
48809;SDS011;40070;47.322;18.784;2023-07-31T01:55:46;5.07;;;2.39;;
48809;SDS011;40070;47.322;18.784;2023-07-31T01:57:47;3.95;;;2.30;;
48809;SDS011;40070;47.322;18.784;2023-07-31T01:59:49;4.28;;;2.29;;
48809;SDS011;40070;47.322;18.784;2023-07-31T02:01:50;3.81;;;2.11;;
48809;SDS011;40070;47.322;18.784;2023-07-31T02:03:51;4.93;;;2.30;;
48809;SDS011;40070;47.322;18.784;2023-07-31T02:05:53;4.88;;;2.67;;
48809;SDS011;40070;47.322;18.784;2023-07-31T02:07:53;4.61;;;2.57;;
48809;SDS011;40070;47.322;18.784;2023-07-31T02:09:54;4.16;;;2.47;;
48809;SDS011;40070;47.322;18.784;2023-07-31T02:11:55;4.40;;;2.28;;
48809;SDS011;40070;47.322;18.784;2023-07-31T02:13:56;4.65;;;2.35;;
48809;SDS011;40070;47.322;18.784;2023-07-31T02:15:57;3.76;;;2.17;;
48809;SDS011;40070;47.322;18.784;2023-07-31T02:17:58;4.41;;;2.26;;
48809;SDS011;40070;47.322;18.784;2023-07-31T02:19:59;4.46;;;2.46;;
48809;SDS011;40070;47.322;18.784;2023-07-31T02:22:00;4.10;;;2.36;;
48809;SDS011;40070;47.322;18.784;2023-07-31T02:24:00;4.76;;;2.64;;
48809;SDS011;40070;47.322;18.784;2023-07-31T02:26:02;4.01;;;2.45;;
48809;SDS011;40070;47.322;18.784;2023-07-31T02:28:03;4.01;;;2.17;;
48809;SDS011;40070;47.322;18.784;2023-07-31T02:30:04;3.33;;;1.98;;
48809;SDS011;40070;47.322;18.784;2023-07-31T02:32:05;4.28;;;2.25;;
48809;SDS011;40070;47.322;18.784;2023-07-31T02:34:05;3.99;;;2.16;;
48809;SDS011;40070;47.322;18.784;2023-07-31T02:36:06;3.58;;;1.98;;
48809;SDS011;40070;47.322;18.784;2023-07-31T02:38:07;4.08;;;2.26;;
48809;SDS011;40070;47.322;18.784;2023-07-31T02:40:08;4.01;;;1.98;;
48809;SDS011;40070;47.322;18.784;2023-07-31T02:42:09;3.67;;;1.60;;
48809;SDS011;40070;47.322;18.784;2023-07-31T02:44:10;4.37;;;1.70;;
48809;SDS011;40070;47.322;18.784;2023-07-31T02:46:11;3.38;;;1.80;;
48809;SDS011;40070;47.322;18.784;2023-07-31T02:48:12;3.55;;;1.61;;
48809;SDS011;40070;47.322;18.784;2023-07-31T02:50:13;2.78;;;1.33;;
48809;SDS011;40070;47.322;18.784;2023-07-31T02:52:14;2.78;;;1.33;;
48809;SDS011;40070;47.322;18.784;2023-07-31T02:54:15;2.62;;;1.33;;
48809;SDS011;40070;47.322;18.784;2023-07-31T02:56:16;2.70;;;1.23;;
48809;SDS011;40070;47.322;18.784;2023-07-31T02:58:17;3.11;;;1.33;;
48809;SDS011;40070;47.322;18.784;2023-07-31T03:00:18;2.78;;;1.23;;
48809;SDS011;40070;47.322;18.784;2023-07-31T03:02:19;2.20;;;1.04;;
48809;SDS011;40070;47.322;18.784;2023-07-31T03:04:20;2.78;;;1.23;;
48809;SDS011;40070;47.322;18.784;2023-07-31T03:06:21;2.62;;;1.42;;
48809;SDS011;40070;47.322;18.784;2023-07-31T03:08:22;4.14;;;1.33;;
48809;SDS011;40070;47.322;18.784;2023-07-31T03:10:23;2.80;;;1.62;;
48809;SDS011;40070;47.322;18.784;2023-07-31T03:12:24;2.21;;;1.14;;
48809;SDS011;40070;47.322;18.784;2023-07-31T03:14:25;2.22;;;1.14;;
48809;SDS011;40070;47.322;18.784;2023-07-31T03:16:26;2.98;;;1.14;;
48809;SDS011;40070;47.322;18.784;2023-07-31T03:18:27;2.72;;;1.33;;
48809;SDS011;40070;47.322;18.784;2023-07-31T03:20:28;2.30;;;0.95;;
48809;SDS011;40070;47.322;18.784;2023-07-31T03:22:29;2.74;;;1.15;;
48809;SDS011;40070;47.322;18.784;2023-07-31T03:24:30;2.08;;;1.06;;
48809;SDS011;40070;47.322;18.784;2023-07-31T03:26:32;2.16;;;0.86;;
48809;SDS011;40070;47.322;18.784;2023-07-31T03:28:32;2.60;;;1.25;;
48809;SDS011;40070;47.322;18.784;2023-07-31T03:30:35;2.34;;;1.15;;
48809;SDS011;40070;47.322;18.784;2023-07-31T03:32:35;2.07;;;1.15;;
48809;SDS011;40070;47.322;18.784;2023-07-31T03:34:36;2.26;;;0.96;;
48809;SDS011;40070;47.322;18.784;2023-07-31T03:36:37;2.53;;;1.25;;
48809;SDS011;40070;47.322;18.784;2023-07-31T03:38:38;1.66;;;0.87;;
48809;SDS011;40070;47.322;18.784;2023-07-31T03:40:40;2.10;;;0.96;;
48809;SDS011;40070;47.322;18.784;2023-07-31T03:42:41;4.48;;;1.35;;
48809;SDS011;40070;47.322;18.784;2023-07-31T03:44:42;2.10;;;0.96;;
48809;SDS011;40070;47.322;18.784;2023-07-31T03:46:43;2.02;;;0.87;;
48809;SDS011;40070;47.322;18.784;2023-07-31T03:48:45;1.50;;;0.77;;
48809;SDS011;40070;47.322;18.784;2023-07-31T03:50:46;2.30;;;0.87;;
48809;SDS011;40070;47.322;18.784;2023-07-31T03:52:47;2.21;;;0.87;;
48809;SDS011;40070;47.322;18.784;2023-07-31T03:54:48;2.39;;;0.97;;
48809;SDS011;40070;47.322;18.784;2023-07-31T03:56:49;1.93;;;0.97;;
48809;SDS011;40070;47.322;18.784;2023-07-31T03:58:50;2.12;;;1.07;;
48809;SDS011;40070;47.322;18.784;2023-07-31T04:00:51;3.26;;;1.64;;
48809;SDS011;40070;47.322;18.784;2023-07-31T04:02:52;2.39;;;1.06;;
48809;SDS011;40070;47.322;18.784;2023-07-31T04:04:53;2.58;;;0.97;;
48809;SDS011;40070;47.322;18.784;2023-07-31T04:06:54;2.13;;;1.07;;
48809;SDS011;40070;47.322;18.784;2023-07-31T04:08:55;2.22;;;0.97;;
48809;SDS011;40070;47.322;18.784;2023-07-31T04:10:56;2.75;;;1.07;;
48809;SDS011;40070;47.322;18.784;2023-07-31T04:12:56;2.76;;;1.17;;
48809;SDS011;40070;47.322;18.784;2023-07-31T04:14:57;2.77;;;0.97;;
48809;SDS011;40070;47.322;18.784;2023-07-31T04:16:58;3.84;;;1.17;;
48809;SDS011;40070;47.322;18.784;2023-07-31T04:18:59;4.11;;;1.17;;
48809;SDS011;40070;47.322;18.784;2023-07-31T04:21:00;2.42;;;0.97;;
48809;SDS011;40070;47.322;18.784;2023-07-31T04:23:01;4.21;;;1.17;;
48809;SDS011;40070;47.322;18.784;2023-07-31T04:25:02;3.16;;;1.17;;
48809;SDS011;40070;47.322;18.784;2023-07-31T04:27:03;1.61;;;0.78;;
48809;SDS011;40070;47.322;18.784;2023-07-31T04:29:04;1.79;;;0.78;;
48809;SDS011;40070;47.322;18.784;2023-07-31T04:31:05;2.17;;;0.98;;
48809;SDS011;40070;47.322;18.784;2023-07-31T04:33:06;2.25;;;1.07;;
48809;SDS011;40070;47.322;18.784;2023-07-31T04:35:07;2.61;;;1.36;;
48809;SDS011;40070;47.322;18.784;2023-07-31T04:37:08;3.27;;;1.08;;
48809;SDS011;40070;47.322;18.784;2023-07-31T04:39:09;2.73;;;0.98;;
48809;SDS011;40070;47.322;18.784;2023-07-31T04:41:10;3.37;;;1.08;;
48809;SDS011;40070;47.322;18.784;2023-07-31T04:43:11;4.20;;;1.08;;
48809;SDS011;40070;47.322;18.784;2023-07-31T04:45:12;3.49;;;1.28;;
48809;SDS011;40070;47.322;18.784;2023-07-31T04:47:13;2.20;;;0.88;;
48809;SDS011;40070;47.322;18.784;2023-07-31T04:49:14;2.39;;;1.08;;
48809;SDS011;40070;47.322;18.784;2023-07-31T04:51:15;2.86;;;1.08;;
48809;SDS011;40070;47.322;18.784;2023-07-31T04:53:16;2.76;;;1.18;;
48809;SDS011;40070;47.322;18.784;2023-07-31T04:55:17;4.80;;;1.28;;
48809;SDS011;40070;47.322;18.784;2023-07-31T04:57:18;2.68;;;1.08;;
48809;SDS011;40070;47.322;18.784;2023-07-31T04:59:19;4.08;;;1.28;;
48809;SDS011;40070;47.322;18.784;2023-07-31T05:01:20;2.79;;;1.28;;
48809;SDS011;40070;47.322;18.784;2023-07-31T05:03:21;2.89;;;1.28;;
48809;SDS011;40070;47.322;18.784;2023-07-31T05:05:22;2.42;;;1.18;;
48809;SDS011;40070;47.322;18.784;2023-07-31T05:07:23;2.34;;;1.09;;
48809;SDS011;40070;47.322;18.784;2023-07-31T05:09:24;2.62;;;0.99;;
48809;SDS011;40070;47.322;18.784;2023-07-31T05:11:25;2.25;;;0.99;;
48809;SDS011;40070;47.322;18.784;2023-07-31T05:13:26;1.96;;;0.79;;
48809;SDS011;40070;47.322;18.784;2023-07-31T05:15:27;3.40;;;1.09;;
48809;SDS011;40070;47.322;18.784;2023-07-31T05:17:28;3.60;;;1.09;;
48809;SDS011;40070;47.322;18.784;2023-07-31T05:19:29;2.73;;;0.89;;
48809;SDS011;40070;47.322;18.784;2023-07-31T05:21:30;1.52;;;0.69;;
48809;SDS011;40070;47.322;18.784;2023-07-31T05:23:31;2.67;;;1.19;;
48809;SDS011;40070;47.322;18.784;2023-07-31T05:25:32;3.43;;;1.19;;
48809;SDS011;40070;47.322;18.784;2023-07-31T05:27:33;2.67;;;1.09;;
48809;SDS011;40070;47.322;18.784;2023-07-31T05:29:34;2.77;;;0.99;;
48809;SDS011;40070;47.322;18.784;2023-07-31T05:31:35;1.72;;;0.79;;
48809;SDS011;40070;47.322;18.784;2023-07-31T05:33:36;2.19;;;0.99;;
48809;SDS011;40070;47.322;18.784;2023-07-31T05:35:37;2.86;;;0.79;;
48809;SDS011;40070;47.322;18.784;2023-07-31T05:37:38;2.86;;;0.89;;
48809;SDS011;40070;47.322;18.784;2023-07-31T05:39:39;2.48;;;0.89;;
48809;SDS011;40070;47.322;18.784;2023-07-31T05:41:40;3.93;;;1.19;;
48809;SDS011;40070;47.322;18.784;2023-07-31T05:43:41;3.85;;;0.99;;
48809;SDS011;40070;47.322;18.784;2023-07-31T05:45:42;3.36;;;1.09;;
48809;SDS011;40070;47.322;18.784;2023-07-31T05:47:43;1.92;;;0.80;;
48809;SDS011;40070;47.322;18.784;2023-07-31T05:49:44;4.23;;;1.19;;
48809;SDS011;40070;47.322;18.784;2023-07-31T05:51:45;2.88;;;1.09;;
48809;SDS011;40070;47.322;18.784;2023-07-31T05:53:46;2.60;;;1.19;;
48809;SDS011;40070;47.322;18.784;2023-07-31T05:55:47;2.22;;;0.90;;
48809;SDS011;40070;47.322;18.784;2023-07-31T05:57:48;2.90;;;1.00;;
48809;SDS011;40070;47.322;18.784;2023-07-31T05:59:49;2.41;;;0.80;;
48809;SDS011;40070;47.322;18.784;2023-07-31T06:01:50;3.29;;;1.10;;
48809;SDS011;40070;47.322;18.784;2023-07-31T06:03:51;2.53;;;1.10;;
48809;SDS011;40070;47.322;18.784;2023-07-31T06:05:52;3.51;;;0.80;;
48809;SDS011;40070;47.322;18.784;2023-07-31T06:07:53;2.14;;;0.80;;
48809;SDS011;40070;47.322;18.784;2023-07-31T06:09:54;2.24;;;1.00;;
48809;SDS011;40070;47.322;18.784;2023-07-31T06:11:55;1.56;;;0.70;;
48809;SDS011;40070;47.322;18.784;2023-07-31T06:13:56;2.05;;;0.70;;
48809;SDS011;40070;47.322;18.784;2023-07-31T06:15:57;4.29;;;0.90;;
48809;SDS011;40070;47.322;18.784;2023-07-31T06:17:58;2.34;;;0.70;;
48809;SDS011;40070;47.322;18.784;2023-07-31T06:19:59;3.03;;;1.10;;
48809;SDS011;40070;47.322;18.784;2023-07-31T06:22:00;2.05;;;0.80;;
48809;SDS011;40070;47.322;18.784;2023-07-31T06:24:01;1.85;;;0.60;;
48809;SDS011;40070;47.322;18.784;2023-07-31T06:26:02;2.34;;;0.80;;
48809;SDS011;40070;47.322;18.784;2023-07-31T06:28:13;2.52;;;0.90;;
48809;SDS011;40070;47.322;18.784;2023-07-31T06:30:14;2.34;;;0.70;;
48809;SDS011;40070;47.322;18.784;2023-07-31T06:32:15;3.90;;;0.80;;
48809;SDS011;40070;47.322;18.784;2023-07-31T06:34:16;1.95;;;0.80;;
48809;SDS011;40070;47.322;18.784;2023-07-31T06:36:17;4.20;;;1.50;;
48809;SDS011;40070;47.322;18.784;2023-07-31T06:38:25;2.44;;;0.90;;
48809;SDS011;40070;47.322;18.784;2023-07-31T06:40:19;4.00;;;0.80;;
48809;SDS011;40070;47.322;18.784;2023-07-31T06:42:20;3.03;;;1.40;;
48809;SDS011;40070;47.322;18.784;2023-07-31T06:44:21;3.03;;;0.90;;
48809;SDS011;40070;47.322;18.784;2023-07-31T06:46:22;4.11;;;1.00;;
48809;SDS011;40070;47.322;18.784;2023-07-31T06:48:23;3.82;;;1.00;;
48809;SDS011;40070;47.322;18.784;2023-07-31T06:50:24;2.74;;;1.00;;
48809;SDS011;40070;47.322;18.784;2023-07-31T06:52:25;2.74;;;1.20;;
48809;SDS011;40070;47.322;18.784;2023-07-31T06:54:26;2.84;;;1.00;;
48809;SDS011;40070;47.322;18.784;2023-07-31T06:56:27;2.94;;;0.80;;
48809;SDS011;40070;47.322;18.784;2023-07-31T06:58:28;4.79;;;0.90;;
48809;SDS011;40070;47.322;18.784;2023-07-31T07:00:29;2.64;;;1.10;;
48809;SDS011;40070;47.322;18.784;2023-07-31T07:02:30;4.31;;;1.40;;
48809;SDS011;40070;47.322;18.784;2023-07-31T07:04:31;1.77;;;0.80;;
48809;SDS011;40070;47.322;18.784;2023-07-31T07:06:32;4.61;;;0.90;;
48809;SDS011;40070;47.322;18.784;2023-07-31T07:08:32;2.85;;;1.10;;
48809;SDS011;40070;47.322;18.784;2023-07-31T07:10:34;3.04;;;1.00;;
48809;SDS011;40070;47.322;18.784;2023-07-31T07:12:35;2.55;;;0.80;;
48809;SDS011;40070;47.322;18.784;2023-07-31T07:14:36;2.17;;;1.00;;
48809;SDS011;40070;47.322;18.784;2023-07-31T07:16:37;1.97;;;0.80;;
48809;SDS011;40070;47.322;18.784;2023-07-31T07:18:38;4.83;;;0.90;;
48809;SDS011;40070;47.322;18.784;2023-07-31T07:20:39;3.05;;;0.90;;
48809;SDS011;40070;47.322;18.784;2023-07-31T07:22:41;3.84;;;1.10;;
48809;SDS011;40070;47.322;18.784;2023-07-31T07:24:42;3.06;;;1.00;;
48809;SDS011;40070;47.322;18.784;2023-07-31T07:26:43;4.34;;;1.10;;
48809;SDS011;40070;47.322;18.784;2023-07-31T07:28:44;2.96;;;1.10;;
48809;SDS011;40070;47.322;18.784;2023-07-31T07:30:50;2.76;;;1.00;;
48809;SDS011;40070;47.322;18.784;2023-07-31T07:32:46;4.64;;;0.80;;
48809;SDS011;40070;47.322;18.784;2023-07-31T07:34:47;1.88;;;0.70;;
48809;SDS011;40070;47.322;18.784;2023-07-31T07:36:48;2.87;;;0.80;;
48809;SDS011;40070;47.322;18.784;2023-07-31T07:38:49;3.16;;;0.80;;
48809;SDS011;40070;47.322;18.784;2023-07-31T07:40:50;2.27;;;0.90;;
48809;SDS011;40070;47.322;18.784;2023-07-31T07:42:51;3.16;;;0.80;;
48809;SDS011;40070;47.322;18.784;2023-07-31T07:44:52;3.06;;;1.00;;
48809;SDS011;40070;47.322;18.784;2023-07-31T07:46:53;2.86;;;0.90;;
48809;SDS011;40070;47.322;18.784;2023-07-31T07:48:54;2.08;;;0.70;;
48809;SDS011;40070;47.322;18.784;2023-07-31T07:50:55;2.77;;;0.70;;
48809;SDS011;40070;47.322;18.784;2023-07-31T07:52:56;3.75;;;0.90;;
48809;SDS011;40070;47.322;18.784;2023-07-31T07:54:57;3.26;;;1.10;;
48809;SDS011;40070;47.322;18.784;2023-07-31T07:56:58;5.24;;;1.00;;
48809;SDS011;40070;47.322;18.784;2023-07-31T07:58:59;2.67;;;1.20;;
48809;SDS011;40070;47.322;18.784;2023-07-31T08:01:00;5.34;;;1.20;;
48809;SDS011;40070;47.322;18.784;2023-07-31T08:03:01;3.16;;;0.90;;
48809;SDS011;40070;47.322;18.784;2023-07-31T08:05:02;4.15;;;1.10;;
48809;SDS011;40070;47.322;18.784;2023-07-31T08:07:03;8.32;;;1.40;;
48809;SDS011;40070;47.322;18.784;2023-07-31T08:09:04;3.86;;;0.90;;
48809;SDS011;40070;47.322;18.784;2023-07-31T08:11:05;2.47;;;0.90;;
48809;SDS011;40070;47.322;18.784;2023-07-31T08:13:06;1.59;;;0.70;;
48809;SDS011;40070;47.322;18.784;2023-07-31T08:15:07;2.87;;;1.10;;
48809;SDS011;40070;47.322;18.784;2023-07-31T08:17:08;4.66;;;1.00;;
48809;SDS011;40070;47.322;18.784;2023-07-31T08:19:09;1.59;;;0.70;;
48809;SDS011;40070;47.322;18.784;2023-07-31T08:21:10;3.87;;;1.00;;
48809;SDS011;40070;47.322;18.784;2023-07-31T08:23:11;3.97;;;0.90;;
48809;SDS011;40070;47.322;18.784;2023-07-31T08:25:12;2.39;;;0.80;;
48809;SDS011;40070;47.322;18.784;2023-07-31T08:27:13;3.38;;;1.00;;
48809;SDS011;40070;47.322;18.784;2023-07-31T08:29:14;3.18;;;0.80;;
48809;SDS011;40070;47.322;18.784;2023-07-31T08:31:15;2.69;;;0.90;;
48809;SDS011;40070;47.322;18.784;2023-07-31T08:33:16;3.58;;;0.90;;
48809;SDS011;40070;47.322;18.784;2023-07-31T08:35:17;2.98;;;0.80;;
48809;SDS011;40070;47.322;18.784;2023-07-31T08:37:18;2.88;;;0.70;;
48809;SDS011;40070;47.322;18.784;2023-07-31T08:39:19;2.49;;;0.80;;
48809;SDS011;40070;47.322;18.784;2023-07-31T08:41:20;2.88;;;0.60;;
48809;SDS011;40070;47.322;18.784;2023-07-31T08:43:26;3.08;;;0.80;;
48809;SDS011;40070;47.322;18.784;2023-07-31T08:45:25;2.98;;;0.90;;
48809;SDS011;40070;47.322;18.784;2023-07-31T08:47:26;4.58;;;0.80;;
48809;SDS011;40070;47.322;18.784;2023-07-31T08:49:28;4.98;;;1.10;;
48809;SDS011;40070;47.322;18.784;2023-07-31T08:51:29;6.17;;;1.10;;
48809;SDS011;40070;47.322;18.784;2023-07-31T08:53:31;2.99;;;0.70;;
48809;SDS011;40070;47.322;18.784;2023-07-31T08:55:32;3.19;;;1.00;;
48809;SDS011;40070;47.322;18.784;2023-07-31T08:57:35;1.50;;;0.60;;
48809;SDS011;40070;47.322;18.784;2023-07-31T08:59:36;3.09;;;0.70;;
48809;SDS011;40070;47.322;18.784;2023-07-31T09:01:39;5.38;;;1.20;;
48809;SDS011;40070;47.322;18.784;2023-07-31T09:03:40;3.99;;;1.10;;
48809;SDS011;40070;47.322;18.784;2023-07-31T09:05:43;9.57;;;1.20;;
48809;SDS011;40070;47.322;18.784;2023-07-31T09:07:44;6.78;;;1.30;;
48809;SDS011;40070;47.322;18.784;2023-07-31T09:09:45;4.48;;;1.10;;
48809;SDS011;40070;47.322;18.784;2023-07-31T09:11:46;2.69;;;0.80;;
48809;SDS011;40070;47.322;18.784;2023-07-31T09:13:47;6.48;;;1.10;;
48809;SDS011;40070;47.322;18.784;2023-07-31T09:15:48;10.77;;;2.70;;
48809;SDS011;40070;47.322;18.784;2023-07-31T09:18:01;1.89;;;0.80;;
48809;SDS011;40070;47.322;18.784;2023-07-31T09:20:13;4.19;;;0.90;;
48809;SDS011;40070;47.322;18.784;2023-07-31T09:22:05;2.49;;;0.90;;
48809;SDS011;40070;47.322;18.784;2023-07-31T09:24:12;4.59;;;1.10;;
48809;SDS011;40070;47.322;18.784;2023-07-31T09:26:33;3.19;;;0.90;;
48809;SDS011;40070;47.322;18.784;2023-07-31T09:28:21;6.88;;;0.90;;
48809;SDS011;40070;47.322;18.784;2023-07-31T09:30:30;6.38;;;0.90;;
48809;SDS011;40070;47.322;18.784;2023-07-31T09:32:31;10.97;;;2.50;;
48809;SDS011;40070;47.322;18.784;2023-07-31T09:34:37;4.49;;;1.30;;
48809;SDS011;40070;47.322;18.784;2023-07-31T09:36:45;3.09;;;0.80;;
48809;SDS011;40070;47.322;18.784;2023-07-31T09:38:37;1.40;;;0.50;;
48809;SDS011;40070;47.322;18.784;2023-07-31T09:40:40;2.40;;;0.80;;
48809;SDS011;40070;47.322;18.784;2023-07-31T09:42:40;4.79;;;1.00;;
48809;SDS011;40070;47.322;18.784;2023-07-31T09:44:41;2.39;;;1.00;;
48809;SDS011;40070;47.322;18.784;2023-07-31T09:46:45;3.69;;;1.00;;
48809;SDS011;40070;47.322;18.784;2023-07-31T09:48:47;5.09;;;1.00;;
48809;SDS011;40070;47.322;18.784;2023-07-31T09:50:48;2.30;;;0.60;;
48809;SDS011;40070;47.322;18.784;2023-07-31T09:52:50;2.60;;;0.80;;
48809;SDS011;40070;47.322;18.784;2023-07-31T09:54:50;6.89;;;0.90;;
48809;SDS011;40070;47.322;18.784;2023-07-31T09:56:52;3.89;;;1.00;;
48809;SDS011;40070;47.322;18.784;2023-07-31T09:58:53;2.10;;;0.70;;
48809;SDS011;40070;47.322;18.784;2023-07-31T10:01:34;2.39;;;0.70;;
48809;SDS011;40070;47.322;18.784;2023-07-31T10:03:39;1.40;;;0.60;;
48809;SDS011;40070;47.322;18.784;2023-07-31T10:05:40;1.40;;;0.50;;
48809;SDS011;40070;47.322;18.784;2023-07-31T10:07:42;3.39;;;1.00;;
48809;SDS011;40070;47.322;18.784;2023-07-31T10:09:44;1.80;;;0.70;;
48809;SDS011;40070;47.322;18.784;2023-07-31T10:11:47;2.89;;;0.90;;
48809;SDS011;40070;47.322;18.784;2023-07-31T10:13:47;5.59;;;2.00;;
48809;SDS011;40070;47.322;18.784;2023-07-31T10:15:49;4.89;;;2.00;;
48809;SDS011;40070;47.322;18.784;2023-07-31T10:17:52;3.29;;;0.90;;
48809;SDS011;40070;47.322;18.784;2023-07-31T10:19:53;4.09;;;1.20;;
48809;SDS011;40070;47.322;18.784;2023-07-31T10:21:54;2.50;;;0.90;;
48809;SDS011;40070;47.322;18.784;2023-07-31T10:23:55;2.99;;;1.00;;
48809;SDS011;40070;47.322;18.784;2023-07-31T10:25:57;2.70;;;0.90;;
48809;SDS011;40070;47.322;18.784;2023-07-31T10:27:59;2.80;;;0.90;;
48809;SDS011;40070;47.322;18.784;2023-07-31T10:30:01;3.40;;;0.90;;
48809;SDS011;40070;47.322;18.784;2023-07-31T10:32:02;3.50;;;0.70;;
48809;SDS011;40070;47.322;18.784;2023-07-31T10:34:03;3.30;;;0.80;;
48809;SDS011;40070;47.322;18.784;2023-07-31T10:36:14;3.30;;;0.90;;
48809;SDS011;40070;47.322;18.784;2023-07-31T10:38:10;2.70;;;0.70;;
48809;SDS011;40070;47.322;18.784;2023-07-31T10:40:11;2.50;;;0.70;;
48809;SDS011;40070;47.322;18.784;2023-07-31T10:42:13;1.90;;;0.70;;
48809;SDS011;40070;47.322;18.784;2023-07-31T10:44:16;2.90;;;0.90;;
48809;SDS011;40070;47.322;18.784;2023-07-31T10:46:15;2.00;;;0.80;;
48809;SDS011;40070;47.322;18.784;2023-07-31T10:48:17;3.30;;;0.80;;
48809;SDS011;40070;47.322;18.784;2023-07-31T10:50:18;3.50;;;0.80;;
48809;SDS011;40070;47.322;18.784;2023-07-31T10:52:19;3.40;;;0.70;;
48809;SDS011;40070;47.322;18.784;2023-07-31T10:54:19;6.39;;;1.10;;
48809;SDS011;40070;47.322;18.784;2023-07-31T10:56:21;3.50;;;0.80;;
48809;SDS011;40070;47.322;18.784;2023-07-31T10:58:22;3.60;;;1.00;;
48809;SDS011;40070;47.322;18.784;2023-07-31T11:00:36;3.00;;;0.90;;
48809;SDS011;40070;47.322;18.784;2023-07-31T11:02:35;2.90;;;0.80;;
48809;SDS011;40070;47.322;18.784;2023-07-31T11:04:41;3.30;;;1.00;;
48809;SDS011;40070;47.322;18.784;2023-07-31T11:06:46;5.89;;;1.20;;
48809;SDS011;40070;47.322;18.784;2023-07-31T11:08:45;2.50;;;0.70;;
48809;SDS011;40070;47.322;18.784;2023-07-31T11:10:50;5.99;;;0.80;;
48809;SDS011;40070;47.322;18.784;2023-07-31T11:12:50;6.59;;;1.20;;
48809;SDS011;40070;47.322;18.784;2023-07-31T11:14:57;4.89;;;0.60;;
48809;SDS011;40070;47.322;18.784;2023-07-31T11:16:53;3.30;;;0.70;;
48809;SDS011;40070;47.322;18.784;2023-07-31T11:18:54;11.29;;;1.80;;
48809;SDS011;40070;47.322;18.784;2023-07-31T11:20:55;1.10;;;0.50;;
48809;SDS011;40070;47.322;18.784;2023-07-31T11:23:04;2.30;;;0.60;;
48809;SDS011;40070;47.322;18.784;2023-07-31T11:24:58;6.59;;;1.00;;
48809;SDS011;40070;47.322;18.784;2023-07-31T11:26:59;7.19;;;1.70;;
48809;SDS011;40070;47.322;18.784;2023-07-31T11:29:03;3.20;;;0.70;;
48809;SDS011;40070;47.322;18.784;2023-07-31T11:31:04;4.30;;;1.10;;
48809;SDS011;40070;47.322;18.784;2023-07-31T11:33:07;1.80;;;0.70;;
48809;SDS011;40070;47.322;18.784;2023-07-31T11:35:20;1.50;;;0.50;;
48809;SDS011;40070;47.322;18.784;2023-07-31T11:37:25;3.10;;;0.70;;
48809;SDS011;40070;47.322;18.784;2023-07-31T11:39:25;4.60;;;0.60;;
48809;SDS011;40070;47.322;18.784;2023-07-31T11:41:28;2.30;;;0.70;;
48809;SDS011;40070;47.322;18.784;2023-07-31T11:43:30;5.60;;;0.80;;
48809;SDS011;40070;47.322;18.784;2023-07-31T11:45:32;1.20;;;0.40;;
48809;SDS011;40070;47.322;18.784;2023-07-31T11:47:34;2.20;;;0.70;;
48809;SDS011;40070;47.322;18.784;2023-07-31T11:49:36;5.30;;;1.10;;
48809;SDS011;40070;47.322;18.784;2023-07-31T11:51:37;3.60;;;0.80;;
48809;SDS011;40070;47.322;18.784;2023-07-31T11:53:43;2.10;;;0.60;;
48809;SDS011;40070;47.322;18.784;2023-07-31T11:55:41;2.20;;;0.70;;
48809;SDS011;40070;47.322;18.784;2023-07-31T11:57:42;2.40;;;0.60;;
48809;SDS011;40070;47.322;18.784;2023-07-31T11:59:44;4.20;;;0.60;;
48809;SDS011;40070;47.322;18.784;2023-07-31T12:01:46;2.70;;;0.50;;
48809;SDS011;40070;47.322;18.784;2023-07-31T12:03:47;3.10;;;0.80;;
48809;SDS011;40070;47.322;18.784;2023-07-31T12:05:48;3.80;;;0.80;;
48809;SDS011;40070;47.322;18.784;2023-07-31T12:07:50;4.60;;;0.70;;
48809;SDS011;40070;47.322;18.784;2023-07-31T12:09:53;5.20;;;1.20;;
48809;SDS011;40070;47.322;18.784;2023-07-31T12:11:53;1.30;;;0.50;;
48809;SDS011;40070;47.322;18.784;2023-07-31T12:13:55;2.60;;;0.80;;